Terminal Aerodrome Forecast
Issued by NWS Pendleton, OR

Home | Current Version | Previous Version | Text Only | Print | Product List | Glossary On
Versions: 1 2 3 4 5 6 7 8 9 10 11 12 13 14 15 16 17
000
FTUS46 KPDT 031355 AAA
TAFPDT
TAF AMD
KPDT 031355Z 0314/0412 25014G22KT P6SM SCT045 BKN250
     FM031900 26016G26KT P6SM BKN045 OVC200
     FM040300 23011G18KT P6SM VCSH SCT050 OVC120
     FM040800 21014G20KT P6SM -SHRA BKN050 OVC080=

USA.gov is the U.S. government's official web portal to all federal, state and local government web resources and services.